PWSweather.com
Personal Weather Stations
Station Observations
SBERGENWX
Wood Ridge, NJ 07075

Wood Ridge, NJ 07075

Lat: 40.851667, Lon: -74.088131

Elevation: 177

Station Type: Davis Vantage Vue

http://201weather.com/

High Low Average
Temperature 57.2°F14.0°C 16.0°F-8.9°C 33.8°F1.0°C
Dew Point 56.6°F13.7°C 3.6°F-15.8°C 26.2°F-3.2°C
Winds 5.8 mph 9.3 kmh Calm Calm 2.0 mph W3.2 kmh W
Wind Gusts 15.0 mph24.1 kmh 1.2 mph1.9 kmh 6.0 mph9.7 kmh
Humidity 98% 55% 74%
Pressure 30.41 in1029.8 mb 29.30 in992.2 mb -
Precipitation 0.04 in1.0 mm - -
Hour Temp Dew Point Humidity Winds Wind Gusts Pressure Precip Precip Rate Daily Precip Total
12:00 AM 55.4°F13.0°C 54.5°F12.5°C 97% 3.5 mph S5.6 kmh S 6.9 mph11.1 kmh 29.51 in999.3 mb - 0.00 in0.0 mm 0.00 in0.0 mm
12:15 AM 55.2°F12.9°C 54.4°F12.4°C 97% 3.5 mph SSE5.6 kmh SSE 3.5 mph5.6 kmh 29.48 in998.3 mb - 0.00 in0.0 mm 0.00 in0.0 mm
12:30 AM 55.6°F13.1°C 54.8°F12.7°C 97% 3.5 mph S5.6 kmh S 5.8 mph9.3 kmh 29.50 in999.0 mb - 0.00 in0.0 mm 0.00 in0.0 mm
12:45 AM 55.1°F12.8°C 54.3°F12.4°C 97% 4.6 mph S7.4 kmh S 5.8 mph9.3 kmh 29.49 in998.6 mb - 0.00 in0.0 mm 0.00 in0.0 mm
01:00 AM 54.9°F12.7°C 54.1°F12.3°C 97% 3.5 mph SSE5.6 kmh SSE 3.5 mph5.6 kmh 29.49 in998.6 mb - 0.00 in0.0 mm 0.00 in0.0 mm
01:15 AM 55.0°F12.8°C 54.2°F12.3°C 97% 3.5 mph S5.6 kmh S 5.8 mph9.3 kmh 29.48 in998.3 mb - 0.00 in0.0 mm 0.00 in0.0 mm
01:30 AM 55.4°F13.0°C 54.5°F12.5°C 97% 3.5 mph S5.6 kmh S 4.6 mph7.4 kmh 29.47 in998.0 mb - 0.01 in0.3 mm 0.01 in0.3 mm
01:45 AM 55.3°F12.9°C 54.7°F12.6°C 98% 3.5 mph S5.6 kmh S 6.9 mph11.1 kmh 29.45 in997.3 mb - 0.01 in0.3 mm 0.02 in0.5 mm
02:00 AM 55.8°F13.2°C 55.2°F12.9°C 98% 3.5 mph S5.6 kmh S 5.8 mph9.3 kmh 29.44 in997.0 mb - 0.00 in0.0 mm 0.02 in0.5 mm
02:15 AM 56.3°F13.5°C 55.8°F13.2°C 98% 3.5 mph SE5.6 kmh SE 4.6 mph7.4 kmh 29.43 in996.6 mb - 0.00 in0.0 mm 0.02 in0.5 mm
02:30 AM 57.2°F14.0°C 56.6°F13.7°C 98% 2.3 mph SSE3.7 kmh SSE 6.9 mph11.1 kmh 29.41 in995.9 mb - 0.00 in0.0 mm 0.02 in0.5 mm
02:45 AM 57.1°F13.9°C 56.5°F13.6°C 98% 3.5 mph SE5.6 kmh SE 6.9 mph11.1 kmh 29.40 in995.6 mb - 0.00 in0.0 mm 0.02 in0.5 mm
03:00 AM 57.2°F14.0°C 56.6°F13.7°C 98% 2.3 mph SSE3.7 kmh SSE 3.5 mph5.6 kmh 29.38 in994.9 mb - 0.01 in0.3 mm 0.03 in0.8 mm
03:15 AM 56.8°F13.8°C 56.2°F13.4°C 98% 4.6 mph SE7.4 kmh SE 6.9 mph11.1 kmh 29.36 in994.2 mb - 0.00 in0.0 mm 0.03 in0.8 mm
03:30 AM 56.2°F13.4°C 55.4°F13.0°C 97% 2.3 mph SE3.7 kmh SE 3.5 mph5.6 kmh 29.35 in993.9 mb - 0.00 in0.0 mm 0.03 in0.8 mm
03:45 AM 56.3°F13.5°C 55.5°F13.1°C 97% 4.6 mph SE7.4 kmh SE 6.9 mph11.1 kmh 29.30 in992.2 mb - 0.01 in0.3 mm 0.04 in1.0 mm
04:00 AM 55.2°F12.9°C 54.4°F12.4°C 97% 5.8 mph SE9.3 kmh SE 10.4 mph16.7 kmh 29.31 in992.6 mb - 0.00 in0.0 mm 0.04 in1.0 mm
04:15 AM 54.9°F12.7°C 54.1°F12.3°C 97% 3.5 mph S5.6 kmh S 4.6 mph7.4 kmh 29.30 in992.2 mb - 0.00 in0.0 mm 0.04 in1.0 mm
04:30 AM 54.0°F12.2°C 53.2°F11.8°C 97% 4.6 mph S7.4 kmh S 9.2 mph14.8 kmh 29.30 in992.2 mb - 0.00 in0.0 mm 0.04 in1.0 mm
04:45 AM 52.3°F11.3°C 51.5°F10.8°C 97% 4.6 mph S7.4 kmh S 6.9 mph11.1 kmh 29.31 in992.6 mb - 0.00 in0.0 mm 0.04 in1.0 mm
05:00 AM 51.1°F10.6°C 50.2°F10.1°C 97% 4.6 mph S7.4 kmh S 5.8 mph9.3 kmh 29.32 in992.9 mb - 0.00 in0.0 mm 0.04 in1.0 mm
05:15 AM 50.5°F10.3°C 49.7°F9.8°C 97% 2.3 mph SSW3.7 kmh SSW 3.5 mph5.6 kmh 29.32 in992.9 mb - 0.00 in0.0 mm 0.04 in1.0 mm
05:30 AM 50.3°F10.2°C 49.5°F9.7°C 97% 1.2 mph WNW1.9 kmh WNW 3.5 mph5.6 kmh 29.35 in993.9 mb - 0.00 in0.0 mm 0.04 in1.0 mm
05:45 AM 46.6°F8.1°C 45.6°F7.6°C 96% 1.2 mph WNW1.9 kmh WNW 4.6 mph7.4 kmh 29.37 in994.6 mb - 0.00 in0.0 mm 0.04 in1.0 mm
06:00 AM 44.4°F6.9°C 43.4°F6.3°C 96% 2.3 mph NW3.7 kmh NW 4.6 mph7.4 kmh 29.40 in995.6 mb - 0.00 in0.0 mm 0.04 in1.0 mm
06:15 AM 43.2°F6.2°C 42.1°F5.6°C 96% 1.2 mph NNW1.9 kmh NNW 8.1 mph13.0 kmh 29.44 in997.0 mb - 0.00 in0.0 mm 0.04 in1.0 mm
06:30 AM 41.6°F5.3°C 40.5°F4.7°C 96% 1.2 mph WNW1.9 kmh WNW 3.5 mph5.6 kmh 29.46 in997.6 mb - 0.00 in0.0 mm 0.04 in1.0 mm
06:45 AM 40.5°F4.7°C 39.4°F4.1°C 96% 1.2 mph NW1.9 kmh NW 3.5 mph5.6 kmh 29.50 in999.0 mb - 0.00 in0.0 mm 0.04 in1.0 mm
07:00 AM 39.5°F4.2°C 38.5°F3.6°C 96% 2.3 mph WNW3.7 kmh WNW 2.3 mph3.7 kmh 29.53 in1000.0 mb - 0.00 in0.0 mm 0.04 in1.0 mm
07:15 AM 37.3°F2.9°C 35.8°F2.1°C 94% 2.3 mph NW3.7 kmh NW 15.0 mph24.1 kmh 29.56 in1001.0 mb - 0.00 in0.0 mm 0.04 in1.0 mm
07:30 AM 34.8°F1.6°C 33.2°F0.7°C 94% 3.5 mph NW5.6 kmh NW 8.1 mph13.0 kmh 29.60 in1002.4 mb - 0.00 in0.0 mm 0.04 in1.0 mm
07:45 AM 32.9°F0.5°C 31.1°F-0.5°C 93% 1.2 mph NW1.9 kmh NW 3.5 mph5.6 kmh 29.62 in1003.0 mb - 0.00 in0.0 mm 0.04 in1.0 mm
08:00 AM 31.0°F-0.6°C 28.4°F-2.0°C 90% 1.2 mph NNE1.9 kmh NNE 4.6 mph7.4 kmh 29.65 in1004.1 mb - 0.00 in0.0 mm 0.04 in1.0 mm
08:15 AM 29.3°F-1.5°C 25.9°F-3.4°C 87% 5.8 mph WNW9.3 kmh WNW 5.8 mph9.3 kmh 29.68 in1005.1 mb - 0.00 in0.0 mm 0.04 in1.0 mm
08:30 AM 28.4°F-2.0°C 24.7°F-4.1°C 86% 1.2 mph NW1.9 kmh NW 6.9 mph11.1 kmh 29.71 in1006.1 mb - 0.00 in0.0 mm 0.04 in1.0 mm
08:45 AM 27.8°F-2.3°C 23.6°F-4.7°C 84% 1.2 mph WNW1.9 kmh WNW 3.5 mph5.6 kmh 29.73 in1006.8 mb - 0.00 in0.0 mm 0.04 in1.0 mm
09:00 AM 27.4°F-2.6°C 21.2°F-6.0°C 77% 2.3 mph NW3.7 kmh NW 5.8 mph9.3 kmh 29.75 in1007.5 mb - 0.00 in0.0 mm 0.04 in1.0 mm
09:15 AM 27.7°F-2.4°C 21.1°F-6.1°C 76% 2.3 mph N3.7 kmh N 6.9 mph11.1 kmh 29.76 in1007.8 mb - 0.00 in0.0 mm 0.04 in1.0 mm
09:30 AM 27.1°F-2.7°C 19.6°F-6.9°C 73% 2.3 mph NW3.7 kmh NW 4.6 mph7.4 kmh 29.79 in1008.8 mb - 0.00 in0.0 mm 0.04 in1.0 mm
09:45 AM 27.5°F-2.5°C 19.0°F-7.2°C 70% 3.5 mph WNW5.6 kmh WNW 10.4 mph16.7 kmh 29.80 in1009.1 mb - 0.00 in0.0 mm 0.04 in1.0 mm
10:00 AM 28.0°F-2.2°C 19.8°F-6.8°C 71% 3.5 mph NW5.6 kmh NW 8.1 mph13.0 kmh 29.82 in1009.8 mb - 0.00 in0.0 mm 0.04 in1.0 mm
10:15 AM 27.1°F-2.7°C 17.2°F-8.2°C 66% 5.8 mph NW9.3 kmh NW 11.5 mph18.5 kmh 29.84 in1010.5 mb - 0.00 in0.0 mm 0.04 in1.0 mm
10:30 AM 26.8°F-2.9°C 17.3°F-8.2°C 67% 2.3 mph NW3.7 kmh NW 10.4 mph16.7 kmh 29.85 in1010.8 mb - 0.00 in0.0 mm 0.04 in1.0 mm
10:45 AM 27.1°F-2.7°C 17.6°F-8.0°C 67% 3.5 mph NW5.6 kmh NW 10.4 mph16.7 kmh 29.86 in1011.2 mb - 0.00 in0.0 mm 0.04 in1.0 mm
11:00 AM 27.9°F-2.3°C 18.0°F-7.8°C 66% 4.6 mph NNW7.4 kmh NNW 9.2 mph14.8 kmh 29.86 in1011.2 mb - 0.00 in0.0 mm 0.04 in1.0 mm
11:15 AM 28.2°F-2.1°C 18.3°F-7.6°C 66% 3.5 mph NW5.6 kmh NW 5.8 mph9.3 kmh 29.86 in1011.2 mb - 0.00 in0.0 mm 0.04 in1.0 mm
11:30 AM 28.3°F-2.1°C 18.0°F-7.8°C 65% 3.5 mph N5.6 kmh N 13.8 mph22.2 kmh 29.87 in1011.5 mb - 0.00 in0.0 mm 0.04 in1.0 mm
11:45 AM 29.6°F-1.3°C 19.7°F-6.8°C 66% 1.2 mph N1.9 kmh N 4.6 mph7.4 kmh 29.88 in1011.9 mb - 0.00 in0.0 mm 0.04 in1.0 mm
12:00 PM 30.3°F-0.9°C 18.8°F-7.3°C 62% 3.5 mph NNW5.6 kmh NNW 4.6 mph7.4 kmh 29.88 in1011.9 mb - 0.00 in0.0 mm 0.04 in1.0 mm
12:15 PM 30.5°F-0.8°C 19.4°F-7.0°C 63% 3.5 mph NNW5.6 kmh NNW 5.8 mph9.3 kmh 29.89 in1012.2 mb - 0.00 in0.0 mm 0.04 in1.0 mm
12:30 PM 30.4°F-0.9°C 19.0°F-7.2°C 62% 3.5 mph NW5.6 kmh NW 9.2 mph14.8 kmh 29.90 in1012.5 mb - 0.00 in0.0 mm 0.04 in1.0 mm
12:45 PM 31.2°F-0.4°C 19.3°F-7.1°C 61% 1.2 mph N1.9 kmh N 3.5 mph5.6 kmh 29.91 in1012.9 mb - 0.00 in0.0 mm 0.04 in1.0 mm
01:00 PM 30.9°F-0.6°C 18.7°F-7.4°C 60% 3.5 mph NW5.6 kmh NW 8.1 mph13.0 kmh 29.92 in1013.2 mb - 0.00 in0.0 mm 0.04 in1.0 mm
01:15 PM 30.9°F-0.6°C 18.6°F-7.4°C 60% 3.5 mph W5.6 kmh W 3.5 mph5.6 kmh 29.93 in1013.5 mb - 0.00 in0.0 mm 0.04 in1.0 mm
01:30 PM 30.9°F-0.6°C 19.0°F-7.2°C 61% 2.3 mph NNW3.7 kmh NNW 8.1 mph13.0 kmh 29.94 in1013.9 mb - 0.00 in0.0 mm 0.04 in1.0 mm
01:45 PM 30.9°F-0.6°C 18.2°F-7.7°C 59% 3.5 mph NW5.6 kmh NW 6.9 mph11.1 kmh 29.96 in1014.6 mb - 0.00 in0.0 mm 0.04 in1.0 mm
02:00 PM 31.4°F-0.3°C 18.7°F-7.4°C 59% 2.3 mph N3.7 kmh N 9.2 mph14.8 kmh 29.97 in1014.9 mb - 0.00 in0.0 mm 0.04 in1.0 mm
02:15 PM 31.7°F-0.2°C 19.0°F-7.2°C 59% 1.2 mph WNW1.9 kmh WNW 6.9 mph11.1 kmh 29.99 in1015.6 mb - 0.00 in0.0 mm 0.04 in1.0 mm
02:30 PM 31.8°F-0.1°C 18.3°F-7.6°C 57% 2.3 mph NW3.7 kmh NW 5.8 mph9.3 kmh 30.00 in1015.9 mb - 0.00 in0.0 mm 0.04 in1.0 mm
02:45 PM 32.1°F0.1°C 18.6°F-7.4°C 57% 1.2 mph N1.9 kmh N 3.5 mph5.6 kmh 30.02 in1016.6 mb - 0.00 in0.0 mm 0.04 in1.0 mm
03:00 PM 31.9°F-0.1°C 17.9°F-7.8°C 56% 2.3 mph NW3.7 kmh NW 10.4 mph16.7 kmh 30.03 in1016.9 mb - 0.00 in0.0 mm 0.04 in1.0 mm
03:15 PM 31.1°F-0.5°C 17.6°F-8.0°C 57% 2.3 mph N3.7 kmh N 4.6 mph7.4 kmh 30.05 in1017.6 mb - 0.00 in0.0 mm 0.04 in1.0 mm
03:30 PM 30.4°F-0.9°C 17.3°F-8.2°C 58% 2.3 mph N3.7 kmh N 4.6 mph7.4 kmh 30.05 in1017.6 mb - 0.00 in0.0 mm 0.04 in1.0 mm
03:45 PM 29.7°F-1.3°C 16.7°F-8.5°C 58% 1.2 mph NNW1.9 kmh NNW 3.5 mph5.6 kmh 30.07 in1018.3 mb - 0.00 in0.0 mm 0.04 in1.0 mm
04:00 PM 28.8°F-1.8°C 16.3°F-8.7°C 59% 1.2 mph WSW1.9 kmh WSW 5.8 mph9.3 kmh 30.08 in1018.6 mb - 0.00 in0.0 mm 0.04 in1.0 mm
04:15 PM 27.6°F-2.4°C 15.5°F-9.2°C 60% 1.2 mph W1.9 kmh W 8.1 mph13.0 kmh 30.10 in1019.3 mb - 0.00 in0.0 mm 0.04 in1.0 mm
04:30 PM 26.6°F-3.0°C 14.9°F-9.5°C 61% 2.3 mph NNW3.7 kmh NNW 8.1 mph13.0 kmh 30.11 in1019.6 mb - 0.00 in0.0 mm 0.04 in1.0 mm
04:45 PM 25.7°F-3.5°C 14.5°F-9.7°C 62% 1.2 mph NW1.9 kmh NW 5.8 mph9.3 kmh 30.12 in1020.0 mb - 0.00 in0.0 mm 0.04 in1.0 mm
05:00 PM 25.0°F-3.9°C 13.8°F-10.1°C 62% 2.3 mph NW3.7 kmh NW 6.9 mph11.1 kmh 30.14 in1020.7 mb - 0.00 in0.0 mm 0.04 in1.0 mm
05:15 PM 24.6°F-4.1°C 14.1°F-9.9°C 64% Calm Calm 3.5 mph5.6 kmh 30.15 in1021.0 mb - 0.00 in0.0 mm 0.04 in1.0 mm
05:30 PM 24.0°F-4.4°C 13.6°F-10.2°C 64% 1.2 mph NW1.9 kmh NW 11.5 mph18.5 kmh 30.16 in1021.3 mb - 0.00 in0.0 mm 0.04 in1.0 mm
05:45 PM 23.4°F-4.8°C 12.6°F-10.8°C 63% 3.5 mph NW5.6 kmh NW 8.1 mph13.0 kmh 30.17 in1021.7 mb - 0.00 in0.0 mm 0.04 in1.0 mm
06:00 PM 23.0°F-5.0°C 12.3°F-10.9°C 63% 2.3 mph N3.7 kmh N 8.1 mph13.0 kmh 30.18 in1022.0 mb - 0.00 in0.0 mm 0.04 in1.0 mm
06:15 PM 22.5°F-5.3°C 11.8°F-11.2°C 63% 1.2 mph N1.9 kmh N 3.5 mph5.6 kmh 30.19 in1022.4 mb - 0.00 in0.0 mm 0.04 in1.0 mm
06:30 PM 22.3°F-5.4°C 11.6°F-11.3°C 63% Calm Calm 2.3 mph3.7 kmh 30.20 in1022.7 mb - 0.00 in0.0 mm 0.04 in1.0 mm
06:45 PM 22.0°F-5.6°C 11.3°F-11.5°C 63% 2.3 mph N3.7 kmh N 5.8 mph9.3 kmh 30.21 in1023.0 mb - 0.00 in0.0 mm 0.04 in1.0 mm
07:00 PM 21.6°F-5.8°C 10.6°F-11.9°C 62% 3.5 mph NW5.6 kmh NW 5.8 mph9.3 kmh 30.23 in1023.7 mb - 0.00 in0.0 mm 0.04 in1.0 mm
07:15 PM 21.2°F-6.0°C 9.8°F-12.3°C 61% 1.2 mph NW1.9 kmh NW 3.5 mph5.6 kmh 30.24 in1024.0 mb - 0.00 in0.0 mm 0.04 in1.0 mm
07:30 PM 20.9°F-6.2°C 9.5°F-12.5°C 61% 2.3 mph NNW3.7 kmh NNW 3.5 mph5.6 kmh 30.25 in1024.4 mb - 0.00 in0.0 mm 0.04 in1.0 mm
07:45 PM 20.7°F-6.3°C 9.7°F-12.4°C 62% 1.2 mph N1.9 kmh N 2.3 mph3.7 kmh 30.26 in1024.7 mb - 0.00 in0.0 mm 0.04 in1.0 mm
08:00 PM 20.4°F-6.4°C 9.1°F-12.7°C 61% 3.5 mph NW5.6 kmh NW 5.8 mph9.3 kmh 30.27 in1025.1 mb - 0.00 in0.0 mm 0.04 in1.0 mm
08:15 PM 20.1°F-6.6°C 9.1°F-12.7°C 62% Calm Calm 2.3 mph3.7 kmh 30.28 in1025.4 mb - 0.00 in0.0 mm 0.04 in1.0 mm
08:30 PM 19.6°F-6.9°C 8.0°F-13.3°C 60% 2.3 mph NW3.7 kmh NW 8.1 mph13.0 kmh 30.29 in1025.7 mb - 0.00 in0.0 mm 0.04 in1.0 mm
08:45 PM 19.3°F-7.1°C 7.7°F-13.5°C 60% 2.3 mph NNW3.7 kmh NNW 4.6 mph7.4 kmh 30.29 in1025.7 mb - 0.00 in0.0 mm 0.04 in1.0 mm
09:00 PM 19.1°F-7.2°C 7.1°F-13.8°C 59% 2.3 mph NW3.7 kmh NW 11.5 mph18.5 kmh 30.31 in1026.4 mb - 0.00 in0.0 mm 0.04 in1.0 mm
09:15 PM 18.9°F-7.3°C 7.3°F-13.7°C 60% 2.3 mph NW3.7 kmh NW 3.5 mph5.6 kmh 30.31 in1026.4 mb - 0.00 in0.0 mm 0.04 in1.0 mm
09:30 PM 18.6°F-7.4°C 6.6°F-14.1°C 59% 1.2 mph NW1.9 kmh NW 4.6 mph7.4 kmh 30.32 in1026.8 mb - 0.00 in0.0 mm 0.04 in1.0 mm
09:45 PM 18.3°F-7.6°C 6.0°F-14.4°C 58% 3.5 mph NNW5.6 kmh NNW 3.5 mph5.6 kmh 30.33 in1027.1 mb - 0.00 in0.0 mm 0.04 in1.0 mm
10:00 PM 18.2°F-7.7°C 5.9°F-14.5°C 58% Calm Calm 2.3 mph3.7 kmh 30.34 in1027.4 mb - 0.00 in0.0 mm 0.04 in1.0 mm
10:15 PM 18.1°F-7.7°C 5.0°F-15.0°C 56% 2.3 mph NW3.7 kmh NW 3.5 mph5.6 kmh 30.36 in1028.1 mb - 0.00 in0.0 mm 0.04 in1.0 mm
10:30 PM 17.7°F-7.9°C 4.2°F-15.4°C 55% 1.2 mph NW1.9 kmh NW 6.9 mph11.1 kmh 30.37 in1028.4 mb - 0.00 in0.0 mm 0.04 in1.0 mm
10:45 PM 17.2°F-8.2°C 3.8°F-15.7°C 55% 1.2 mph NW1.9 kmh NW 5.8 mph9.3 kmh 30.37 in1028.4 mb - 0.00 in0.0 mm 0.04 in1.0 mm
11:00 PM 16.9°F-8.4°C 3.9°F-15.6°C 56% 3.5 mph N5.6 kmh N 8.1 mph13.0 kmh 30.38 in1028.8 mb - 0.00 in0.0 mm 0.04 in1.0 mm
11:15 PM 16.7°F-8.5°C 4.5°F-15.3°C 58% Calm Calm 3.5 mph5.6 kmh 30.39 in1029.1 mb - 0.00 in0.0 mm 0.04 in1.0 mm
11:30 PM 16.2°F-8.8°C 3.6°F-15.8°C 57% Calm Calm 1.2 mph1.9 kmh 30.40 in1029.5 mb - 0.00 in0.0 mm 0.04 in1.0 mm
11:45 PM 16.0°F-8.9°C 4.2°F-15.4°C 59% 1.2 mph N1.9 kmh N 2.3 mph3.7 kmh 30.41 in1029.8 mb - 0.00 in0.0 mm 0.04 in1.0 mm